sensor_id;sensor_type;location;lat;lon;timestamp;P1;durP1;ratioP1;P2;durP2;ratioP2
64598;SDS011;51008;51.504;11.548;2024-01-30T00:04:23;9.82;;;5.80;;
64598;SDS011;51008;51.504;11.548;2024-01-30T00:09:24;10.80;;;6.13;;
64598;SDS011;51008;51.504;11.548;2024-01-30T00:14:25;13.48;;;6.07;;
64598;SDS011;51008;51.504;11.548;2024-01-30T00:19:27;13.90;;;5.82;;
64598;SDS011;51008;51.504;11.548;2024-01-30T00:24:28;11.02;;;6.18;;
64598;SDS011;51008;51.504;11.548;2024-01-30T00:29:29;12.63;;;5.97;;
64598;SDS011;51008;51.504;11.548;2024-01-30T00:34:30;15.10;;;7.18;;
64598;SDS011;51008;51.504;11.548;2024-01-30T00:39:31;12.60;;;6.72;;
64598;SDS011;51008;51.504;11.548;2024-01-30T00:44:34;16.45;;;7.72;;
64598;SDS011;51008;51.504;11.548;2024-01-30T00:49:36;16.55;;;7.97;;
64598;SDS011;51008;51.504;11.548;2024-01-30T00:54:49;17.13;;;7.78;;
64598;SDS011;51008;51.504;11.548;2024-01-30T00:59:50;13.60;;;7.80;;
64598;SDS011;51008;51.504;11.548;2024-01-30T01:04:51;16.23;;;8.13;;
64598;SDS011;51008;51.504;11.548;2024-01-30T01:09:52;16.80;;;8.30;;
64598;SDS011;51008;51.504;11.548;2024-01-30T01:14:53;17.05;;;8.30;;
64598;SDS011;51008;51.504;11.548;2024-01-30T01:19:54;13.80;;;7.60;;
64598;SDS011;51008;51.504;11.548;2024-01-30T01:24:56;13.38;;;7.35;;
64598;SDS011;51008;51.504;11.548;2024-01-30T01:29:57;16.27;;;7.60;;
64598;SDS011;51008;51.504;11.548;2024-01-30T01:34:58;13.43;;;7.20;;
64598;SDS011;51008;51.504;11.548;2024-01-30T01:39:59;16.02;;;8.25;;
64598;SDS011;51008;51.504;11.548;2024-01-30T01:45:01;17.95;;;7.78;;
64598;SDS011;51008;51.504;11.548;2024-01-30T01:50:02;14.38;;;7.63;;
64598;SDS011;51008;51.504;11.548;2024-01-30T01:55:03;14.60;;;8.38;;
64598;SDS011;51008;51.504;11.548;2024-01-30T02:00:05;14.32;;;8.02;;
64598;SDS011;51008;51.504;11.548;2024-01-30T02:05:09;11.65;;;7.10;;
64598;SDS011;51008;51.504;11.548;2024-01-30T02:10:11;14.43;;;7.40;;
64598;SDS011;51008;51.504;11.548;2024-01-30T02:15:13;11.95;;;6.93;;
64598;SDS011;51008;51.504;11.548;2024-01-30T02:20:14;14.57;;;8.07;;
64598;SDS011;51008;51.504;11.548;2024-01-30T02:25:16;14.95;;;8.73;;
64598;SDS011;51008;51.504;11.548;2024-01-30T02:30:17;15.10;;;7.65;;
64598;SDS011;51008;51.504;11.548;2024-01-30T02:35:18;15.10;;;7.75;;
64598;SDS011;51008;51.504;11.548;2024-01-30T02:40:19;16.70;;;8.02;;
64598;SDS011;51008;51.504;11.548;2024-01-30T02:45:20;15.65;;;7.72;;
64598;SDS011;51008;51.504;11.548;2024-01-30T02:50:21;17.77;;;8.85;;
64598;SDS011;51008;51.504;11.548;2024-01-30T02:55:23;14.02;;;8.35;;
64598;SDS011;51008;51.504;11.548;2024-01-30T03:00:24;14.73;;;8.20;;
64598;SDS011;51008;51.504;11.548;2024-01-30T03:05:25;16.48;;;8.70;;
64598;SDS011;51008;51.504;11.548;2024-01-30T03:10:26;15.93;;;7.90;;
64598;SDS011;51008;51.504;11.548;2024-01-30T03:15:27;13.95;;;7.43;;
64598;SDS011;51008;51.504;11.548;2024-01-30T03:20:28;14.90;;;7.35;;
64598;SDS011;51008;51.504;11.548;2024-01-30T03:25:29;14.07;;;7.45;;
64598;SDS011;51008;51.504;11.548;2024-01-30T03:30:30;15.27;;;7.47;;
64598;SDS011;51008;51.504;11.548;2024-01-30T03:35:31;14.70;;;8.10;;
64598;SDS011;51008;51.504;11.548;2024-01-30T03:40:32;15.90;;;7.70;;
64598;SDS011;51008;51.504;11.548;2024-01-30T03:45:33;13.13;;;6.85;;
64598;SDS011;51008;51.504;11.548;2024-01-30T03:50:34;15.80;;;8.32;;
64598;SDS011;51008;51.504;11.548;2024-01-30T03:55:35;14.55;;;7.43;;
64598;SDS011;51008;51.504;11.548;2024-01-30T04:00:37;12.88;;;7.60;;
64598;SDS011;51008;51.504;11.548;2024-01-30T04:05:38;16.25;;;8.38;;
64598;SDS011;51008;51.504;11.548;2024-01-30T04:10:39;13.68;;;8.05;;
64598;SDS011;51008;51.504;11.548;2024-01-30T04:15:40;15.70;;;8.38;;
64598;SDS011;51008;51.504;11.548;2024-01-30T04:20:42;14.73;;;8.52;;
64598;SDS011;51008;51.504;11.548;2024-01-30T04:25:43;14.48;;;8.05;;
64598;SDS011;51008;51.504;11.548;2024-01-30T04:30:44;15.55;;;8.93;;
64598;SDS011;51008;51.504;11.548;2024-01-30T04:35:45;14.55;;;8.32;;
64598;SDS011;51008;51.504;11.548;2024-01-30T04:40:46;18.45;;;9.52;;
64598;SDS011;51008;51.504;11.548;2024-01-30T04:45:47;15.73;;;8.63;;
64598;SDS011;51008;51.504;11.548;2024-01-30T04:50:48;19.08;;;8.98;;
64598;SDS011;51008;51.504;11.548;2024-01-30T04:55:49;13.68;;;8.18;;
64598;SDS011;51008;51.504;11.548;2024-01-30T05:00:50;19.48;;;8.20;;
64598;SDS011;51008;51.504;11.548;2024-01-30T05:05:54;13.53;;;7.80;;
64598;SDS011;51008;51.504;11.548;2024-01-30T05:10:55;14.80;;;7.95;;
64598;SDS011;51008;51.504;11.548;2024-01-30T05:15:56;15.88;;;7.82;;
64598;SDS011;51008;51.504;11.548;2024-01-30T05:20:57;13.80;;;7.50;;
64598;SDS011;51008;51.504;11.548;2024-01-30T05:25:59;13.07;;;7.38;;
64598;SDS011;51008;51.504;11.548;2024-01-30T05:31:00;12.90;;;6.82;;
64598;SDS011;51008;51.504;11.548;2024-01-30T05:36:01;13.73;;;7.30;;
64598;SDS011;51008;51.504;11.548;2024-01-30T05:41:02;13.93;;;7.43;;
64598;SDS011;51008;51.504;11.548;2024-01-30T05:46:04;18.20;;;8.52;;
64598;SDS011;51008;51.504;11.548;2024-01-30T05:51:06;13.80;;;7.63;;
64598;SDS011;51008;51.504;11.548;2024-01-30T05:56:08;14.82;;;8.55;;
64598;SDS011;51008;51.504;11.548;2024-01-30T06:01:09;13.52;;;7.78;;
64598;SDS011;51008;51.504;11.548;2024-01-30T06:06:10;16.10;;;7.60;;
64598;SDS011;51008;51.504;11.548;2024-01-30T06:11:11;14.60;;;7.63;;
64598;SDS011;51008;51.504;11.548;2024-01-30T06:16:12;14.82;;;7.40;;
64598;SDS011;51008;51.504;11.548;2024-01-30T06:21:13;15.80;;;7.63;;
64598;SDS011;51008;51.504;11.548;2024-01-30T06:26:14;15.75;;;7.68;;
64598;SDS011;51008;51.504;11.548;2024-01-30T06:31:15;14.73;;;7.35;;
64598;SDS011;51008;51.504;11.548;2024-01-30T06:36:16;14.50;;;7.78;;
64598;SDS011;51008;51.504;11.548;2024-01-30T06:41:17;15.88;;;7.50;;
64598;SDS011;51008;51.504;11.548;2024-01-30T06:46:18;16.10;;;7.13;;
64598;SDS011;51008;51.504;11.548;2024-01-30T06:51:19;14.18;;;6.95;;
64598;SDS011;51008;51.504;11.548;2024-01-30T06:56:20;14.55;;;7.50;;
64598;SDS011;51008;51.504;11.548;2024-01-30T07:01:27;13.18;;;6.90;;
64598;SDS011;51008;51.504;11.548;2024-01-30T07:06:28;27.38;;;17.60;;
64598;SDS011;51008;51.504;11.548;2024-01-30T07:11:29;15.52;;;8.88;;
64598;SDS011;51008;51.504;11.548;2024-01-30T07:16:30;14.10;;;7.13;;
64598;SDS011;51008;51.504;11.548;2024-01-30T07:21:31;15.48;;;6.93;;
64598;SDS011;51008;51.504;11.548;2024-01-30T07:26:32;18.88;;;7.47;;
64598;SDS011;51008;51.504;11.548;2024-01-30T07:31:33;13.70;;;7.60;;
64598;SDS011;51008;51.504;11.548;2024-01-30T07:36:34;16.83;;;7.80;;
64598;SDS011;51008;51.504;11.548;2024-01-30T07:41:35;14.57;;;7.90;;
64598;SDS011;51008;51.504;11.548;2024-01-30T07:46:36;15.82;;;8.13;;
64598;SDS011;51008;51.504;11.548;2024-01-30T07:51:37;13.10;;;7.65;;
64598;SDS011;51008;51.504;11.548;2024-01-30T07:56:38;13.88;;;7.50;;
64598;SDS011;51008;51.504;11.548;2024-01-30T08:01:39;13.30;;;7.55;;
64598;SDS011;51008;51.504;11.548;2024-01-30T08:06:40;16.25;;;7.40;;
64598;SDS011;51008;51.504;11.548;2024-01-30T08:11:41;19.05;;;8.30;;
64598;SDS011;51008;51.504;11.548;2024-01-30T08:16:42;13.07;;;7.10;;
64598;SDS011;51008;51.504;11.548;2024-01-30T08:21:43;14.32;;;6.85;;
64598;SDS011;51008;51.504;11.548;2024-01-30T08:26:44;12.98;;;6.65;;
64598;SDS011;51008;51.504;11.548;2024-01-30T08:31:46;12.45;;;6.72;;
64598;SDS011;51008;51.504;11.548;2024-01-30T08:36:47;12.13;;;6.72;;
64598;SDS011;51008;51.504;11.548;2024-01-30T08:41:48;13.15;;;6.68;;
64598;SDS011;51008;51.504;11.548;2024-01-30T08:46:49;13.50;;;7.15;;
64598;SDS011;51008;51.504;11.548;2024-01-30T08:51:50;12.98;;;6.85;;
64598;SDS011;51008;51.504;11.548;2024-01-30T08:56:51;11.75;;;7.10;;
64598;SDS011;51008;51.504;11.548;2024-01-30T09:01:52;15.20;;;6.70;;
64598;SDS011;51008;51.504;11.548;2024-01-30T09:06:53;16.40;;;7.07;;
64598;SDS011;51008;51.504;11.548;2024-01-30T09:11:54;12.80;;;7.03;;
64598;SDS011;51008;51.504;11.548;2024-01-30T09:16:55;12.10;;;6.70;;
64598;SDS011;51008;51.504;11.548;2024-01-30T09:21:56;12.82;;;7.35;;
64598;SDS011;51008;51.504;11.548;2024-01-30T09:26:57;11.40;;;6.72;;
64598;SDS011;51008;51.504;11.548;2024-01-30T09:31:58;14.20;;;7.10;;
64598;SDS011;51008;51.504;11.548;2024-01-30T09:36:59;13.70;;;7.18;;
64598;SDS011;51008;51.504;11.548;2024-01-30T09:47:40;16.92;;;6.30;;
64598;SDS011;51008;51.504;11.548;2024-01-30T09:52:43;14.50;;;6.28;;
64598;SDS011;51008;51.504;11.548;2024-01-30T09:57:45;14.10;;;7.20;;
64598;SDS011;51008;51.504;11.548;2024-01-30T10:02:46;11.43;;;6.10;;
64598;SDS011;51008;51.504;11.548;2024-01-30T10:07:52;11.90;;;6.20;;
64598;SDS011;51008;51.504;11.548;2024-01-30T10:12:54;12.38;;;6.15;;
64598;SDS011;51008;51.504;11.548;2024-01-30T10:17:55;11.57;;;5.97;;
64598;SDS011;51008;51.504;11.548;2024-01-30T10:22:56;11.38;;;6.30;;
64598;SDS011;51008;51.504;11.548;2024-01-30T10:27:58;11.57;;;6.35;;
64598;SDS011;51008;51.504;11.548;2024-01-30T10:32:59;10.18;;;6.20;;
64598;SDS011;51008;51.504;11.548;2024-01-30T10:38:00;14.63;;;6.32;;
64598;SDS011;51008;51.504;11.548;2024-01-30T10:43:01;13.50;;;6.72;;
64598;SDS011;51008;51.504;11.548;2024-01-30T10:48:04;11.10;;;6.63;;
64598;SDS011;51008;51.504;11.548;2024-01-30T10:53:08;12.77;;;7.03;;
64598;SDS011;51008;51.504;11.548;2024-01-30T10:58:10;14.48;;;7.15;;
64598;SDS011;51008;51.504;11.548;2024-01-30T11:03:11;12.80;;;7.47;;
64598;SDS011;51008;51.504;11.548;2024-01-30T11:08:13;22.02;;;7.72;;
64598;SDS011;51008;51.504;11.548;2024-01-30T11:13:14;15.65;;;7.88;;
64598;SDS011;51008;51.504;11.548;2024-01-30T11:18:25;13.13;;;7.45;;
64598;SDS011;51008;51.504;11.548;2024-01-30T11:23:27;14.50;;;8.15;;
64598;SDS011;51008;51.504;11.548;2024-01-30T11:28:32;14.23;;;7.78;;
64598;SDS011;51008;51.504;11.548;2024-01-30T11:33:34;13.82;;;7.50;;
64598;SDS011;51008;51.504;11.548;2024-01-30T11:38:35;14.57;;;7.90;;
64598;SDS011;51008;51.504;11.548;2024-01-30T11:43:36;13.95;;;8.30;;
64598;SDS011;51008;51.504;11.548;2024-01-30T11:48:37;14.68;;;7.80;;
64598;SDS011;51008;51.504;11.548;2024-01-30T11:53:38;14.75;;;7.47;;
64598;SDS011;51008;51.504;11.548;2024-01-30T11:58:42;16.05;;;7.90;;
64598;SDS011;51008;51.504;11.548;2024-01-30T12:03:49;13.18;;;7.88;;
64598;SDS011;51008;51.504;11.548;2024-01-30T12:09:00;15.48;;;7.95;;
64598;SDS011;51008;51.504;11.548;2024-01-30T12:14:02;12.90;;;7.65;;
64598;SDS011;51008;51.504;11.548;2024-01-30T12:19:04;13.68;;;7.93;;
64598;SDS011;51008;51.504;11.548;2024-01-30T12:24:05;15.85;;;7.72;;
64598;SDS011;51008;51.504;11.548;2024-01-30T12:29:06;19.52;;;8.65;;
64598;SDS011;51008;51.504;11.548;2024-01-30T12:34:07;13.77;;;8.25;;
64598;SDS011;51008;51.504;11.548;2024-01-30T12:39:10;17.00;;;8.35;;
64598;SDS011;51008;51.504;11.548;2024-01-30T12:44:13;12.88;;;7.85;;
64598;SDS011;51008;51.504;11.548;2024-01-30T12:49:14;15.88;;;7.97;;
64598;SDS011;51008;51.504;11.548;2024-01-30T12:54:15;14.88;;;8.75;;
64598;SDS011;51008;51.504;11.548;2024-01-30T12:59:16;16.23;;;9.00;;
64598;SDS011;51008;51.504;11.548;2024-01-30T13:04:17;14.75;;;8.48;;
64598;SDS011;51008;51.504;11.548;2024-01-30T13:09:18;15.50;;;8.50;;
64598;SDS011;51008;51.504;11.548;2024-01-30T13:14:20;15.43;;;8.68;;
64598;SDS011;51008;51.504;11.548;2024-01-30T13:19:20;21.67;;;8.55;;
64598;SDS011;51008;51.504;11.548;2024-01-30T13:24:22;15.55;;;8.45;;
64598;SDS011;51008;51.504;11.548;2024-01-30T13:29:23;15.65;;;8.45;;
64598;SDS011;51008;51.504;11.548;2024-01-30T13:34:24;20.48;;;8.88;;
64598;SDS011;51008;51.504;11.548;2024-01-30T13:39:25;16.25;;;9.02;;
64598;SDS011;51008;51.504;11.548;2024-01-30T13:44:26;14.02;;;8.73;;
64598;SDS011;51008;51.504;11.548;2024-01-30T13:49:27;14.82;;;8.93;;
64598;SDS011;51008;51.504;11.548;2024-01-30T13:54:28;16.02;;;9.13;;
64598;SDS011;51008;51.504;11.548;2024-01-30T13:59:29;19.00;;;9.63;;
64598;SDS011;51008;51.504;11.548;2024-01-30T14:04:30;16.63;;;8.85;;
64598;SDS011;51008;51.504;11.548;2024-01-30T14:09:31;15.20;;;8.77;;
64598;SDS011;51008;51.504;11.548;2024-01-30T14:14:32;16.70;;;7.82;;
64598;SDS011;51008;51.504;11.548;2024-01-30T14:19:34;18.35;;;9.02;;
64598;SDS011;51008;51.504;11.548;2024-01-30T14:24:35;14.32;;;8.30;;
64598;SDS011;51008;51.504;11.548;2024-01-30T14:29:36;18.58;;;9.63;;
64598;SDS011;51008;51.504;11.548;2024-01-30T14:34:37;15.70;;;8.30;;
64598;SDS011;51008;51.504;11.548;2024-01-30T14:39:38;16.15;;;8.77;;
64598;SDS011;51008;51.504;11.548;2024-01-30T14:44:39;17.20;;;9.00;;
64598;SDS011;51008;51.504;11.548;2024-01-30T14:49:41;17.75;;;8.60;;
64598;SDS011;51008;51.504;11.548;2024-01-30T14:54:42;16.17;;;8.60;;
64598;SDS011;51008;51.504;11.548;2024-01-30T14:59:43;16.92;;;8.45;;
64598;SDS011;51008;51.504;11.548;2024-01-30T15:04:44;15.02;;;8.35;;
64598;SDS011;51008;51.504;11.548;2024-01-30T15:09:45;15.65;;;8.93;;
64598;SDS011;51008;51.504;11.548;2024-01-30T15:14:47;15.75;;;8.38;;
64598;SDS011;51008;51.504;11.548;2024-01-30T15:19:48;16.77;;;8.18;;
64598;SDS011;51008;51.504;11.548;2024-01-30T15:24:49;16.92;;;8.23;;
64598;SDS011;51008;51.504;11.548;2024-01-30T15:29:51;15.35;;;7.93;;
64598;SDS011;51008;51.504;11.548;2024-01-30T15:34:52;18.30;;;8.73;;
64598;SDS011;51008;51.504;11.548;2024-01-30T15:39:53;15.55;;;7.78;;
64598;SDS011;51008;51.504;11.548;2024-01-30T15:44:54;14.73;;;7.47;;
64598;SDS011;51008;51.504;11.548;2024-01-30T15:49:55;12.80;;;7.53;;
64598;SDS011;51008;51.504;11.548;2024-01-30T15:54:56;15.45;;;7.88;;
64598;SDS011;51008;51.504;11.548;2024-01-30T15:59:57;15.10;;;7.47;;
64598;SDS011;51008;51.504;11.548;2024-01-30T16:04:58;15.10;;;8.38;;
64598;SDS011;51008;51.504;11.548;2024-01-30T16:09:59;19.70;;;9.30;;
64598;SDS011;51008;51.504;11.548;2024-01-30T16:15:00;17.65;;;8.27;;
64598;SDS011;51008;51.504;11.548;2024-01-30T16:20:02;15.25;;;8.95;;
64598;SDS011;51008;51.504;11.548;2024-01-30T16:25:03;15.13;;;8.57;;
64598;SDS011;51008;51.504;11.548;2024-01-30T16:30:04;17.60;;;8.40;;
64598;SDS011;51008;51.504;11.548;2024-01-30T16:35:06;17.70;;;8.27;;
64598;SDS011;51008;51.504;11.548;2024-01-30T16:40:07;15.48;;;8.20;;
64598;SDS011;51008;51.504;11.548;2024-01-30T16:45:08;16.23;;;8.40;;
64598;SDS011;51008;51.504;11.548;2024-01-30T16:50:10;15.10;;;8.00;;
64598;SDS011;51008;51.504;11.548;2024-01-30T16:55:11;13.90;;;7.97;;
64598;SDS011;51008;51.504;11.548;2024-01-30T17:00:12;22.50;;;8.18;;
64598;SDS011;51008;51.504;11.548;2024-01-30T17:05:13;13.63;;;8.18;;
64598;SDS011;51008;51.504;11.548;2024-01-30T17:10:14;17.38;;;8.57;;
64598;SDS011;51008;51.504;11.548;2024-01-30T17:15:15;22.83;;;8.82;;
64598;SDS011;51008;51.504;11.548;2024-01-30T17:20:16;14.07;;;8.25;;
64598;SDS011;51008;51.504;11.548;2024-01-30T17:25:17;15.88;;;7.75;;
64598;SDS011;51008;51.504;11.548;2024-01-30T17:30:21;16.30;;;8.07;;
64598;SDS011;51008;51.504;11.548;2024-01-30T17:35:22;16.58;;;8.73;;
64598;SDS011;51008;51.504;11.548;2024-01-30T17:40:23;16.23;;;9.23;;
64598;SDS011;51008;51.504;11.548;2024-01-30T17:45:27;16.70;;;9.25;;
64598;SDS011;51008;51.504;11.548;2024-01-30T17:50:29;17.05;;;9.48;;
64598;SDS011;51008;51.504;11.548;2024-01-30T17:55:30;16.60;;;9.55;;
64598;SDS011;51008;51.504;11.548;2024-01-30T18:00:31;17.52;;;9.38;;
64598;SDS011;51008;51.504;11.548;2024-01-30T18:05:32;16.27;;;9.00;;
64598;SDS011;51008;51.504;11.548;2024-01-30T18:10:33;13.27;;;8.07;;
64598;SDS011;51008;51.504;11.548;2024-01-30T18:15:34;14.05;;;8.20;;
64598;SDS011;51008;51.504;11.548;2024-01-30T18:20:36;15.73;;;9.15;;
64598;SDS011;51008;51.504;11.548;2024-01-30T18:25:37;16.77;;;9.07;;
64598;SDS011;51008;51.504;11.548;2024-01-30T18:30:38;16.67;;;8.88;;
64598;SDS011;51008;51.504;11.548;2024-01-30T18:35:39;17.77;;;9.10;;
64598;SDS011;51008;51.504;11.548;2024-01-30T18:40:40;14.85;;;8.70;;
64598;SDS011;51008;51.504;11.548;2024-01-30T18:45:41;16.75;;;8.82;;
64598;SDS011;51008;51.504;11.548;2024-01-30T18:50:42;13.45;;;7.97;;
64598;SDS011;51008;51.504;11.548;2024-01-30T18:55:43;16.20;;;9.10;;
64598;SDS011;51008;51.504;11.548;2024-01-30T19:00:44;18.10;;;10.20;;
64598;SDS011;51008;51.504;11.548;2024-01-30T19:05:45;19.63;;;10.45;;
64598;SDS011;51008;51.504;11.548;2024-01-30T19:10:46;16.90;;;9.80;;
64598;SDS011;51008;51.504;11.548;2024-01-30T19:15:47;15.40;;;9.00;;
64598;SDS011;51008;51.504;11.548;2024-01-30T19:20:48;16.52;;;9.43;;
64598;SDS011;51008;51.504;11.548;2024-01-30T19:25:49;16.20;;;9.48;;
64598;SDS011;51008;51.504;11.548;2024-01-30T19:30:50;17.67;;;9.27;;
64598;SDS011;51008;51.504;11.548;2024-01-30T19:35:51;17.30;;;9.65;;
64598;SDS011;51008;51.504;11.548;2024-01-30T19:40:52;18.90;;;9.80;;
64598;SDS011;51008;51.504;11.548;2024-01-30T19:45:53;18.48;;;8.90;;
64598;SDS011;51008;51.504;11.548;2024-01-30T19:50:54;14.98;;;9.32;;
64598;SDS011;51008;51.504;11.548;2024-01-30T19:55:55;14.68;;;8.60;;
64598;SDS011;51008;51.504;11.548;2024-01-30T20:00:56;16.95;;;8.70;;
64598;SDS011;51008;51.504;11.548;2024-01-30T20:05:57;17.48;;;9.30;;
64598;SDS011;51008;51.504;11.548;2024-01-30T20:10:58;17.20;;;9.52;;
64598;SDS011;51008;51.504;11.548;2024-01-30T20:15:59;15.63;;;8.88;;
64598;SDS011;51008;51.504;11.548;2024-01-30T20:21:00;17.42;;;9.55;;
64598;SDS011;51008;51.504;11.548;2024-01-30T20:26:03;16.48;;;9.18;;
64598;SDS011;51008;51.504;11.548;2024-01-30T20:31:04;17.60;;;9.65;;
64598;SDS011;51008;51.504;11.548;2024-01-30T20:36:08;17.00;;;9.80;;
64598;SDS011;51008;51.504;11.548;2024-01-30T20:41:09;19.70;;;9.55;;
64598;SDS011;51008;51.504;11.548;2024-01-30T20:46:10;23.75;;;9.70;;
64598;SDS011;51008;51.504;11.548;2024-01-30T20:51:12;20.45;;;9.70;;
64598;SDS011;51008;51.504;11.548;2024-01-30T20:56:13;19.73;;;10.45;;
64598;SDS011;51008;51.504;11.548;2024-01-30T21:01:14;17.75;;;9.48;;
64598;SDS011;51008;51.504;11.548;2024-01-30T21:06:15;19.80;;;10.23;;
64598;SDS011;51008;51.504;11.548;2024-01-30T21:11:16;17.02;;;9.57;;
64598;SDS011;51008;51.504;11.548;2024-01-30T21:16:17;18.63;;;10.02;;
64598;SDS011;51008;51.504;11.548;2024-01-30T21:21:18;20.98;;;9.95;;
64598;SDS011;51008;51.504;11.548;2024-01-30T21:26:19;18.60;;;9.82;;
64598;SDS011;51008;51.504;11.548;2024-01-30T21:31:20;16.95;;;10.02;;
64598;SDS011;51008;51.504;11.548;2024-01-30T21:36:21;21.27;;;9.68;;
64598;SDS011;51008;51.504;11.548;2024-01-30T21:41:22;19.23;;;9.75;;
64598;SDS011;51008;51.504;11.548;2024-01-30T21:46:23;22.42;;;10.18;;
64598;SDS011;51008;51.504;11.548;2024-01-30T21:51:25;19.83;;;10.52;;
64598;SDS011;51008;51.504;11.548;2024-01-30T21:56:26;22.73;;;10.60;;
64598;SDS011;51008;51.504;11.548;2024-01-30T22:01:27;24.30;;;11.18;;
64598;SDS011;51008;51.504;11.548;2024-01-30T22:06:48;21.80;;;10.35;;
64598;SDS011;51008;51.504;11.548;2024-01-30T22:11:50;16.17;;;9.82;;
64598;SDS011;51008;51.504;11.548;2024-01-30T22:16:51;18.55;;;9.95;;
64598;SDS011;51008;51.504;11.548;2024-01-30T22:21:52;19.92;;;10.95;;
64598;SDS011;51008;51.504;11.548;2024-01-30T22:26:53;19.23;;;10.40;;
64598;SDS011;51008;51.504;11.548;2024-01-30T22:31:54;19.10;;;11.45;;
64598;SDS011;51008;51.504;11.548;2024-01-30T22:36:55;19.48;;;10.60;;
64598;SDS011;51008;51.504;11.548;2024-01-30T22:41:59;22.10;;;10.38;;
64598;SDS011;51008;51.504;11.548;2024-01-30T22:47:00;20.15;;;11.05;;
64598;SDS011;51008;51.504;11.548;2024-01-30T22:52:01;17.77;;;10.10;;
64598;SDS011;51008;51.504;11.548;2024-01-30T22:57:03;16.08;;;10.32;;
64598;SDS011;51008;51.504;11.548;2024-01-30T23:02:04;23.65;;;11.15;;
64598;SDS011;51008;51.504;11.548;2024-01-30T23:07:05;26.48;;;11.40;;
64598;SDS011;51008;51.504;11.548;2024-01-30T23:12:06;21.45;;;11.20;;
64598;SDS011;51008;51.504;11.548;2024-01-30T23:17:07;22.38;;;10.80;;
64598;SDS011;51008;51.504;11.548;2024-01-30T23:22:08;18.00;;;9.25;;
64598;SDS011;51008;51.504;11.548;2024-01-30T23:27:09;19.83;;;9.90;;
64598;SDS011;51008;51.504;11.548;2024-01-30T23:32:10;21.48;;;10.05;;
64598;SDS011;51008;51.504;11.548;2024-01-30T23:37:11;19.50;;;10.63;;
64598;SDS011;51008;51.504;11.548;2024-01-30T23:42:13;23.65;;;10.88;;
64598;SDS011;51008;51.504;11.548;2024-01-30T23:47:14;18.52;;;10.93;;
64598;SDS011;51008;51.504;11.548;2024-01-30T23:52:15;20.33;;;11.23;;
64598;SDS011;51008;51.504;11.548;2024-01-30T23:57:16;21.50;;;11.00;;
